Time;durP1;ratioP1;P1;durP2;ratioP2;P2;SDS_P1;SDS_P2;PMS_P1;PMS_P2;Temp;Humidity;BMP_temperature;BMP_pressure;BME280_temperature;BME280_humidity;BME280_pressure;Samples;Min_cycle;Max_cycle;Signal;HPM_P1;HPM_P2
2022/01/22 00:02:25;;;;;;;;;;;;;;;21.99;29.46;101261.09;4917198;29;1027;-74
2022/01/22 00:04:51;;;;;;;;;;;;;;;23.67;27.30;101258.66;4919575;29;810;-74
2022/01/22 00:07:17;;;;;;;;;;;;;;;22.98;28.65;101257.22;4919655;29;1004;-74
2022/01/22 00:09:50;;;;;;;;;;;;;;;22.18;29.56;101262.47;4918782;29;893;-75
2022/01/22 00:12:28;;;;;;;;;;;;;;;22.70;28.80;101253.28;4919546;29;992;-74
2022/01/22 00:14:55;;;;;;;;;;;;;;;22.86;28.78;101256.88;4938205;29;992;-74
2022/01/22 00:17:21;;;;;;;;;;;;;;;23.57;27.47;101259.84;4928436;29;1178;-75
2022/01/22 00:19:47;;;;;;;;;;;;;;;22.11;29.76;101267.88;4917482;29;1952;-74
2022/01/22 00:22:14;;;;;;;;;;;;;;;23.84;27.79;101264.78;4918368;29;1338;-74
2022/01/22 00:24:40;;;;;;;;;;;;;;;23.33;27.97;101260.22;4918364;29;960;-74
2022/01/22 00:27:08;;;;;;;;;;;;;;;22.15;28.99;101262.84;4917066;29;1031;-75
2022/01/22 00:29:34;;;;;;;;;;;;;;;24.01;27.19;101254.28;4917113;29;1008;-75
2022/01/22 00:32:02;;;;;;;;;;;;;;;22.90;29.02;101263.72;4916545;29;1363;-74
2022/01/22 00:34:28;;;;;;;;;;;;;;;23.83;27.86;101255.59;4917636;29;956;-74
2022/01/22 00:36:54;;;;;;;;;;;;;;;23.11;28.02;101256.53;4917790;29;995;-75
2022/01/22 00:39:20;;;;;;;;;;;;;;;23.82;27.40;101256.66;4917839;29;815;-75
2022/01/22 00:41:47;;;;;;;;;;;;;;;23.91;27.35;101257.41;4917469;29;1976;-74
2022/01/22 00:44:14;;;;;;;;;;;;;;;24.20;26.48;101264.69;4916318;29;1532;-74
2022/01/22 00:46:41;;;;;;;;;;;;;;;22.79;29.03;101272.53;4917673;29;963;-74
2022/01/22 00:49:07;;;;;;;;;;;;;;;24.37;26.76;101270.78;4916903;29;770;-74
2022/01/22 00:51:33;;;;;;;;;;;;;;;23.26;27.75;101275.91;4917393;29;1394;-74
2022/01/22 00:54:01;;;;;;;;;;;;;;;23.82;27.70;101275.19;4916296;29;896;-74
2022/01/22 00:56:28;;;;;;;;;;;;;;;24.78;26.46;101280.22;4916338;29;992;-73
2022/01/22 00:58:54;;;;;;;;;;;;;;;23.42;27.22;101283.13;4916117;29;1154;-75
2022/01/22 01:01:22;;;;;;;;;;;;;;;21.92;30.12;101296.06;4917223;29;1907;-74
2022/01/22 01:03:48;;;;;;;;;;;;;;;23.75;27.12;101286.22;4916042;29;1047;-74
2022/01/22 01:06:15;;;;;;;;;;;;;;;25.11;26.08;101298.94;4915913;29;1071;-74
2022/01/22 01:08:42;;;;;;;;;;;;;;;24.76;25.92;101300.91;4917405;29;995;-74
2022/01/22 01:11:12;;;;;;;;;;;;;;;25.05;25.52;101294.22;4915933;29;1315;-75
2022/01/22 01:13:44;;;;;;;;;;;;;;;24.36;26.42;101301.50;4915038;29;1062;-75
2022/01/22 01:16:32;;;;;;;;;;;;;;;24.26;27.01;101304.59;4915516;29;949;-75
2022/01/22 01:32:53;;;;;;;;;;;;;;;25.18;25.80;101315.63;4918085;29;976;-75
2022/01/22 01:35:21;;;;;;;;;;;;;;;25.00;25.70;101316.19;4917301;29;921;-75
2022/01/22 01:37:49;;;;;;;;;;;;;;;25.86;24.68;101315.63;4917857;29;917;-75
2022/01/22 01:40:19;;;;;;;;;;;;;;;24.36;26.06;101332.00;4927624;29;1964;-75
2022/01/22 01:42:50;;;;;;;;;;;;;;;25.52;24.79;101336.94;4923053;29;1110;-76
2022/01/22 01:45:16;;;;;;;;;;;;;;;24.19;26.27;101339.75;4915477;29;972;-74
2022/01/22 01:47:49;;;;;;;;;;;;;;;25.59;24.97;101344.44;4915302;29;992;-75
2022/01/22 01:50:15;;;;;;;;;;;;;;;25.21;25.57;101341.09;4916468;29;1311;-74
2022/01/22 01:52:47;;;;;;;;;;;;;;;25.85;24.72;101350.03;4915240;29;1044;-74
2022/01/22 01:55:19;;;;;;;;;;;;;;;26.28;23.73;101342.41;4915337;29;1008;-75
2022/01/22 01:57:45;;;;;;;;;;;;;;;26.04;24.52;101341.97;4915570;29;880;-76
2022/01/22 02:00:19;;;;;;;;;;;;;;;25.62;24.80;101346.81;4915594;29;1900;-75
2022/01/22 02:02:50;;;;;;;;;;;;;;;25.84;24.39;101353.91;4915946;29;607;-74
2022/01/22 02:05:23;;;;;;;;;;;;;;;25.49;24.81;101348.47;4915304;29;829;-76
2022/01/22 02:07:54;;;;;;;;;;;;;;;25.60;24.44;101355.34;4915432;29;984;-76
2022/01/22 02:10:26;;;;;;;;;;;;;;;25.71;24.62;101359.47;4915202;29;1381;-76
2022/01/22 02:24:11;;;;;;;;;;;;;;;24.65;26.02;101360.63;4914662;29;842;-75
2022/01/22 02:26:37;;;;;;;;;;;;;;;23.32;27.79;101374.84;4898967;29;1255;-74
2022/01/22 02:29:05;;;;;;;;;;;;;;;23.84;27.32;101379.28;4914995;29;989;-76
2022/01/22 02:32:02;;;;;;;;;;;;;;;23.11;27.31;101375.59;4899176;29;1340;-76
2022/01/22 02:34:42;;;;;;;;;;;;;;;24.97;25.59;101392.41;4915063;29;1019;-75
2022/01/22 02:37:14;;;;;;;;;;;;;;;24.14;25.82;101384.72;4914864;29;951;-76
2022/01/22 02:39:44;;;;;;;;;;;;;;;23.96;27.20;101392.63;4915951;29;892;-76
2022/01/22 02:42:11;;;;;;;;;;;;;;;24.50;26.52;101394.84;4914651;29;1915;-75
2022/01/22 02:44:44;;;;;;;;;;;;;;;25.29;25.33;101395.59;4914861;29;843;-76
2022/01/22 02:47:14;;;;;;;;;;;;;;;24.89;25.25;101392.59;4917309;29;1007;-76
2022/01/22 02:49:41;;;;;;;;;;;;;;;23.83;26.19;101396.94;4918423;29;1502;-76
2022/01/22 02:52:11;;;;;;;;;;;;;;;24.29;26.22;101400.44;4915212;29;1418;-75
2022/01/22 02:54:42;;;;;;;;;;;;;;;25.12;25.32;101402.56;4914347;29;1051;-75
2022/01/22 02:57:09;;;;;;;;;;;;;;;25.18;24.96;101408.16;4915771;29;956;-74
2022/01/22 02:59:38;;;;;;;;;;;;;;;25.00;25.35;101405.91;4914944;29;770;-75
2022/01/22 03:02:05;;;;;;;;;;;;;;;24.60;25.76;101401.97;4914328;29;1902;-75
2022/01/22 03:04:31;;;;;;;;;;;;;;;24.32;25.99;101417.53;4914484;29;825;-76
2022/01/22 03:06:57;;;;;;;;;;;;;;;25.14;24.98;101415.19;4914743;29;810;-76
2022/01/22 03:09:29;;;;;;;;;;;;;;;24.66;25.50;101420.63;4914738;29;1139;-76
2022/01/22 03:12:15;;;;;;;;;;;;;;;24.77;25.18;101414.50;4914953;29;1452;-76
2022/01/22 03:17:46;;;;;;;;;;;;;;;23.57;26.49;101419.66;4914484;29;1290;-76
2022/01/22 03:20:33;;;;;;;;;;;;;;;22.49;27.47;101411.69;4914263;29;1428;-75
2022/01/22 03:23:08;;;;;;;;;;;;;;;23.84;26.15;101408.91;4914194;29;991;-75
2022/01/22 03:28:25;;;;;;;;;;;;;;;23.27;26.61;101427.16;4914017;29;940;-74
2022/01/22 03:30:51;;;;;;;;;;;;;;;23.42;26.48;101438.22;4913474;29;1483;-75
2022/01/22 03:33:21;;;;;;;;;;;;;;;23.59;25.71;101447.19;4914040;29;1228;-75
2022/01/22 03:35:54;;;;;;;;;;;;;;;23.94;25.68;101452.97;4898590;29;1348;-75
2022/01/22 03:38:20;;;;;;;;;;;;;;;24.05;25.05;101455.22;4917502;29;1514;-76
2022/01/22 03:40:49;;;;;;;;;;;;;;;23.77;25.53;101461.50;4919253;29;1977;-74
2022/01/22 03:43:16;;;;;;;;;;;;;;;24.22;24.86;101467.78;4918169;29;909;-74
2022/01/22 03:45:43;;;;;;;;;;;;;;;24.10;24.77;101474.91;4901473;29;1358;-74
2022/01/22 03:48:09;;;;;;;;;;;;;;;24.25;25.08;101477.63;4917740;29;905;-75
2022/01/22 03:50:36;;;;;;;;;;;;;;;24.07;25.19;101486.41;4917775;29;1334;-76
2022/01/22 03:53:02;;;;;;;;;;;;;;;23.50;26.00;101485.22;4917502;29;809;-74
2022/01/22 03:55:38;;;;;;;;;;;;;;;23.44;25.78;101485.97;4917264;29;968;-75
2022/01/22 03:58:29;;;;;;;;;;;;;;;24.02;25.51;101494.44;4918414;29;998;-76
2022/01/22 04:01:49;;;;;;;;;;;;;;;23.92;25.54;101491.09;4917271;29;1891;-75
2022/01/22 04:04:14;;;;;;;;;;;;;;;24.55;24.59;101491.38;4901119;29;1073;-75
2022/01/22 04:07:14;;;;;;;;;;;;;;;23.96;24.86;101489.66;4917324;29;999;-75
2022/01/22 04:09:43;;;;;;;;;;;;;;;24.08;25.44;101504.75;4917081;29;1165;-74
2022/01/22 04:12:11;;;;;;;;;;;;;;;23.82;25.38;101503.31;4918550;29;1424;-75
2022/01/22 04:14:46;;;;;;;;;;;;;;;23.74;25.34;101517.28;4925402;29;916;-74
2022/01/22 04:17:23;;;;;;;;;;;;;;;22.81;26.33;101511.16;4918713;29;1027;-75
2022/01/22 04:25:22;;;;;;;;;;;;;;;23.80;25.41;101519.31;4917951;29;829;-74
2022/01/22 04:27:51;;;;;;;;;;;;;;;22.86;26.60;101525.31;4918414;29;980;-75
2022/01/22 04:30:19;;;;;;;;;;;;;;;23.53;25.42;101527.25;4916953;29;1270;-75
2022/01/22 04:32:45;;;;;;;;;;;;;;;22.52;26.59;101530.25;4917136;29;829;-75
2022/01/22 04:35:11;;;;;;;;;;;;;;;22.97;26.07;101532.31;4916630;29;921;-75
2022/01/22 04:37:39;;;;;;;;;;;;;;;23.68;25.05;101543.03;4917224;29;995;-74
2022/01/22 04:40:06;;;;;;;;;;;;;;;23.30;25.84;101543.09;4917259;29;1331;-76
2022/01/22 04:42:35;;;;;;;;;;;;;;;22.63;26.33;101547.47;4901127;29;1970;-76
2022/01/22 04:45:07;;;;;;;;;;;;;;;23.26;25.88;101550.06;4916609;29;983;-75
2022/01/22 04:47:45;;;;;;;;;;;;;;;22.97;25.93;101557.22;4916870;29;837;-75
2022/01/22 04:55:45;;;;;;;;;;;;;;;24.10;24.50;101565.56;4893446;29;1256;-76
2022/01/22 04:58:11;;;;;;;;;;;;;;;23.21;25.23;101573.66;4916871;29;869;-75
2022/01/22 05:03:47;;;;;;;;;;;;;;;22.56;26.27;101586.94;4951451;29;1942;-73
2022/01/22 05:06:43;;;;;;;;;;;;;;;21.40;27.94;101580.13;4953482;29;703;-73
2022/01/22 05:09:20;;;;;;;;;;;;;;;23.43;25.23;101589.53;4953683;29;801;-73
2022/01/22 05:11:58;;;;;;;;;;;;;;;23.22;25.44;101603.06;4964620;28;1421;-73
2022/01/22 05:14:25;;;;;;;;;;;;;;;23.64;24.59;101613.75;4957890;28;904;-73
2022/01/22 05:16:55;;;;;;;;;;;;;;;23.21;25.47;101619.84;4942277;28;1300;-72
2022/01/22 05:19:29;;;;;;;;;;;;;;;24.10;24.40;101612.69;4974270;28;979;-72
2022/01/22 05:22:02;;;;;;;;;;;;;;;23.98;24.29;101621.50;4957517;28;1887;-73
2022/01/22 05:24:32;;;;;;;;;;;;;;;23.89;24.15;101623.53;4957341;28;1071;-71
2022/01/22 05:27:31;;;;;;;;;;;;;;;24.19;23.66;101619.88;4958133;28;724;-73
2022/01/22 05:30:09;;;;;;;;;;;;;;;24.32;23.58;101624.69;4942191;28;1103;-73
2022/01/22 05:33:01;;;;;;;;;;;;;;;24.54;23.43;101625.63;4973480;28;1469;-71
2022/01/22 05:38:19;;;;;;;;;;;;;;;23.81;24.23;101642.13;4972604;28;1039;-71
2022/01/22 05:40:45;;;;;;;;;;;;;;;24.57;23.51;101642.75;4972083;28;1322;-71
2022/01/22 05:43:12;;;;;;;;;;;;;;;24.51;23.50;101649.06;4956034;28;1985;-70
2022/01/22 05:45:38;;;;;;;;;;;;;;;24.36;23.78;101654.66;4972379;28;1492;-72
2022/01/22 05:48:04;;;;;;;;;;;;;;;24.40;24.08;101655.97;4972193;28;1580;-71
2022/01/22 05:50:34;;;;;;;;;;;;;;;24.47;23.61;101661.59;4972912;28;1533;-71
2022/01/22 05:53:08;;;;;;;;;;;;;;;24.59;23.34;101664.75;4971658;28;1520;-74
2022/01/22 05:59:35;;;;;;;;;;;;;;;24.66;23.14;101665.72;4955017;28;1769;-73
2022/01/22 06:01:29;;;;;;;;;;;;;;;24.14;23.64;101678.66;4977308;28;1918;-72
2022/01/22 06:04:05;;;;;;;;;;;;;;;24.33;23.57;101682.78;4963808;28;1225;-74
2022/01/22 06:06:31;;;;;;;;;;;;;;;24.58;23.30;101688.00;4948736;28;1270;-73
2022/01/22 06:09:07;;;;;;;;;;;;;;;24.24;23.10;101692.25;4965630;28;1312;-73
2022/01/22 06:11:40;;;;;;;;;;;;;;;24.23;23.22;101694.16;4967333;28;1833;-72
2022/01/22 06:14:07;;;;;;;;;;;;;;;24.05;23.41;101693.69;4961756;28;1228;-71
2022/01/22 06:16:40;;;;;;;;;;;;;;;23.88;23.62;101709.63;4955079;28;975;-72
2022/01/22 06:19:32;;;;;;;;;;;;;;;23.78;23.22;101715.41;4985805;28;2036;-73
2022/01/22 06:21:59;;;;;;;;;;;;;;;23.83;23.54;101723.19;4992005;28;1973;-73
2022/01/22 06:24:26;;;;;;;;;;;;;;;23.86;23.12;101726.41;4974417;28;828;-72
2022/01/22 06:26:53;;;;;;;;;;;;;;;24.30;22.40;101729.47;4974581;28;936;-72
2022/01/22 06:29:20;;;;;;;;;;;;;;;24.08;22.69;101737.69;4974632;28;789;-74
2022/01/22 06:31:46;;;;;;;;;;;;;;;23.91;22.82;101742.53;4974334;28;1277;-74
2022/01/22 06:34:13;;;;;;;;;;;;;;;23.63;23.08;101747.78;4974048;28;912;-74
2022/01/22 06:36:40;;;;;;;;;;;;;;;23.76;22.92;101755.44;4974434;28;824;-74
2022/01/22 06:39:13;;;;;;;;;;;;;;;23.23;23.86;101751.53;4975412;28;987;-74
2022/01/22 06:41:59;;;;;;;;;;;;;;;22.93;24.05;101756.06;4992725;28;1910;-74
2022/01/22 06:44:41;;;;;;;;;;;;;;;23.06;23.72;101749.91;4974801;28;1521;-74
2022/01/22 06:47:42;;;;;;;;;;;;;;;23.52;23.03;101757.41;4932710;29;1244;-74
2022/01/22 06:50:20;;;;;;;;;;;;;;;23.49;23.11;101760.53;4987069;28;1189;-75
2022/01/22 06:52:55;;;;;;;;;;;;;;;23.57;22.78;101764.13;4998246;28;1420;-74
2022/01/22 06:55:34;;;;;;;;;;;;;;;23.91;22.45;101767.47;4976036;28;984;-73
2022/01/22 06:58:01;;;;;;;;;;;;;;;23.85;22.27;101771.84;4992738;28;769;-74
2022/01/22 07:00:31;;;;;;;;;;;;;;;23.89;22.46;101767.69;4974449;28;1031;-72
2022/01/22 07:03:11;;;;;;;;;;;;;;;23.84;22.12;101778.44;4971100;28;1915;-72
2022/01/22 07:05:37;;;;;;;;;;;;;;;23.27;23.08;101789.97;4970797;28;1555;-73
2022/01/22 07:08:08;;;;;;;;;;;;;;;22.99;23.40;101784.91;4970876;28;995;-73
2022/01/22 07:10:39;;;;;;;;;;;;;;;22.79;23.79;101790.88;4953938;28;1501;-73
2022/01/22 07:13:06;;;;;;;;;;;;;;;23.08;23.59;101797.66;4971257;28;1366;-72
2022/01/22 07:15:33;;;;;;;;;;;;;;;23.17;23.39;101793.84;4954180;28;1315;-73
2022/01/22 07:18:12;;;;;;;;;;;;;;;22.98;23.47;101795.13;4954537;28;988;-72
2022/01/22 07:20:40;;;;;;;;;;;;;;;23.43;23.01;101794.53;4971654;28;1520;-73
2022/01/22 07:23:16;;;;;;;;;;;;;;;23.14;23.48;101791.41;4954339;28;1984;-71
2022/01/22 07:25:46;;;;;;;;;;;;;;;23.21;23.31;101802.63;4971234;28;1488;-72
2022/01/22 07:28:39;;;;;;;;;;;;;;;23.27;23.19;101795.50;4970867;28;1463;-72
2022/01/22 07:31:05;;;;;;;;;;;;;;;22.95;23.47;101802.94;4953911;28;1528;-73
2022/01/22 07:33:34;;;;;;;;;;;;;;;22.83;23.85;101808.84;4954363;28;1286;-72
2022/01/22 07:36:00;;;;;;;;;;;;;;;22.79;24.00;101804.72;4954263;28;1011;-72
2022/01/22 07:38:27;;;;;;;;;;;;;;;23.49;23.44;101805.75;4970714;28;928;-72
2022/01/22 07:40:53;;;;;;;;;;;;;;;23.34;23.78;101807.56;4969768;28;1488;-72
2022/01/22 07:43:25;;;;;;;;;;;;;;;23.59;23.69;101811.03;4953997;28;1989;-72
2022/01/22 07:46:11;;;;;;;;;;;;;;;23.82;23.47;101808.22;4971290;28;820;-74
2022/01/22 07:48:47;;;;;;;;;;;;;;;23.88;23.60;101813.03;4970367;28;1319;-72
2022/01/22 07:51:42;;;;;;;;;;;;;;;23.54;23.76;101819.91;4951627;28;1347;-74
2022/01/22 07:54:08;;;;;;;;;;;;;;;24.67;23.22;101816.47;4962205;28;1552;-73
2022/01/22 07:56:36;;;;;;;;;;;;;;;23.20;23.92;101818.38;4953559;28;1556;-74
2022/01/22 07:59:03;;;;;;;;;;;;;;;23.85;23.33;101820.84;4953914;28;1622;-74
2022/01/22 08:01:34;;;;;;;;;;;;;;;24.41;22.89;101820.53;4953976;28;1552;-73
2022/01/22 08:04:22;;;;;;;;;;;;;;;23.76;23.30;101827.50;4970340;28;1989;-73
2022/01/22 08:07:08;;;;;;;;;;;;;;;24.39;23.07;101834.59;4971292;28;975;-74
2022/01/22 08:10:08;;;;;;;;;;;;;;;24.40;23.24;101841.88;4953535;28;1580;-72
2022/01/22 08:12:42;;;;;;;;;;;;;;;25.03;22.36;101838.72;4970188;28;1541;-74
2022/01/22 08:15:10;;;;;;;;;;;;;;;24.93;22.55;101834.53;4970001;28;1279;-72
2022/01/22 08:17:38;;;;;;;;;;;;;;;25.00;22.44;101843.78;4953772;28;853;-72
2022/01/22 08:20:07;;;;;;;;;;;;;;;24.86;22.90;101842.78;4952544;28;1571;-74
2022/01/22 08:22:52;;;;;;;;;;;;;;;24.54;22.74;101856.78;4970751;28;1968;-73
2022/01/22 08:25:40;;;;;;;;;;;;;;;24.83;22.58;101860.66;4974428;28;987;-73
2022/01/22 08:31:24;;;;;;;;;;;;;;;24.95;22.61;101865.72;4957321;28;1322;-75
2022/01/22 08:36:37;;;;;;;;;;;;;;;25.47;22.05;101874.94;4957258;28;758;-74
2022/01/22 08:39:04;;;;;;;;;;;;;;;25.49;22.27;101875.63;4956616;28;991;-74
2022/01/22 08:41:31;;;;;;;;;;;;;;;26.33;21.34;101886.09;4957072;28;1317;-72
2022/01/22 08:43:59;;;;;;;;;;;;;;;27.21;20.64;101885.59;4957125;28;1952;-72
2022/01/22 08:46:26;;;;;;;;;;;;;;;27.23;21.02;101891.84;4940880;28;1159;-73
2022/01/22 08:48:54;;;;;;;;;;;;;;;28.10;20.73;101890.38;4956779;28;991;-72
2022/01/22 08:51:22;;;;;;;;;;;;;;;27.63;20.44;101893.06;4956940;28;1357;-72
2022/01/22 08:53:51;;;;;;;;;;;;;;;27.77;20.46;101902.31;4940669;28;1154;-72
2022/01/22 08:56:18;;;;;;;;;;;;;;;27.93;19.79;101906.63;4956296;28;861;-73
2022/01/22 08:58:45;;;;;;;;;;;;;;;28.39;19.92;101911.44;4956522;28;825;-73
2022/01/22 09:01:30;;;;;;;;;;;;;;;26.68;20.92;101921.47;4956593;28;1329;-72
2022/01/22 09:04:02;;;;;;;;;;;;;;;26.37;21.64;101922.75;4956701;28;1910;-71
2022/01/22 09:06:47;;;;;;;;;;;;;;;26.40;21.28;101925.13;4973876;28;955;-72
2022/01/22 09:09:25;;;;;;;;;;;;;;;26.33;21.16;101930.63;4956671;28;758;-72
2022/01/22 09:11:55;;;;;;;;;;;;;;;25.04;22.63;101942.34;4974243;28;1330;-72
2022/01/22 09:14:34;;;;;;;;;;;;;;;25.50;22.43;101936.56;4956368;28;1071;-73
2022/01/22 09:17:02;;;;;;;;;;;;;;;25.81;22.58;101940.13;4956569;28;936;-73
2022/01/22 09:19:34;;;;;;;;;;;;;;;25.85;22.05;101944.25;4973785;28;1071;-73
2022/01/22 09:22:02;;;;;;;;;;;;;;;25.80;21.82;101946.75;4957515;28;1413;-72
2022/01/22 09:24:29;;;;;;;;;;;;;;;25.62;22.03;101945.28;4956258;28;1993;-73
2022/01/22 09:26:58;;;;;;;;;;;;;;;23.46;24.15;101960.38;4955964;28;999;-73
2022/01/22 09:29:25;;;;;;;;;;;;;;;25.72;22.63;101962.50;4945033;28;1131;-72
2022/01/22 09:31:52;;;;;;;;;;;;;;;25.82;22.35;101970.53;4966155;28;1374;-73
2022/01/22 09:34:49;;;;;;;;;;;;;;;25.98;21.64;101971.34;4965701;28;1241;-71
2022/01/22 09:37:48;;;;;;;;;;;;;;;24.70;23.06;101977.91;4947340;28;1874;-73
2022/01/22 09:40:38;;;;;;;;;;;;;;;26.13;22.12;101986.09;4952324;28;1428;-72
2022/01/22 09:43:43;;;;;;;;;;;;;;;26.40;21.24;101981.66;4949242;28;1915;-72
2022/01/22 09:46:28;;;;;;;;;;;;;;;25.98;21.63;101982.47;4953746;29;944;-72
2022/01/22 09:49:14;;;;;;;;;;;;;;;26.51;21.32;101977.47;4954257;29;658;-71
2022/01/22 09:52:00;;;;;;;;;;;;;;;25.77;21.55;101984.16;4953686;29;1409;-71
2022/01/22 09:54:46;;;;;;;;;;;;;;;26.28;21.73;101990.72;4954211;29;818;-75
2022/01/22 09:57:29;;;;;;;;;;;;;;;26.00;21.04;101975.66;4953328;28;1233;-74
2022/01/22 10:00:23;;;;;;;;;;;;;;;26.22;21.12;101984.91;4955852;28;999;-73
2022/01/22 10:02:55;;;;;;;;;;;;;;;26.40;21.37;101987.22;4939236;28;1910;-73
2022/01/22 10:05:36;;;;;;;;;;;;;;;25.96;21.42;101991.00;4955375;28;999;-73
2022/01/22 10:08:25;;;;;;;;;;;;;;;26.46;21.26;101995.84;4972702;28;1030;-71
2022/01/22 10:11:16;;;;;;;;;;;;;;;25.49;21.85;101998.75;4972599;28;1333;-74
2022/01/22 10:14:02;;;;;;;;;;;;;;;25.42;21.65;102000.59;4970952;28;1494;-72
2022/01/22 10:16:29;;;;;;;;;;;;;;;24.24;22.54;101991.84;4972452;28;808;-71
2022/01/22 10:19:09;;;;;;;;;;;;;;;23.97;22.46;101983.00;4972502;28;1050;-74
2022/01/22 10:21:37;;;;;;;;;;;;;;;24.97;22.16;101996.94;4972396;28;1336;-74
2022/01/22 10:24:18;;;;;;;;;;;;;;;25.45;22.17;101997.44;4972070;28;1907;-73
2022/01/22 10:26:45;;;;;;;;;;;;;;;25.67;21.46;101986.38;4954395;28;1430;-73
2022/01/22 10:29:12;;;;;;;;;;;;;;;25.90;21.27;101981.53;4970922;28;1610;-72
2022/01/22 10:31:42;;;;;;;;;;;;;;;27.12;20.75;101995.50;4970734;28;1351;-73
2022/01/22 10:34:30;;;;;;;;;;;;;;;27.58;20.36;101988.50;4935295;29;1011;-74
2022/01/22 10:37:29;;;;;;;;;;;;;;;28.28;19.50;101991.09;4951353;29;1273;-74
2022/01/22 10:40:12;;;;;;;;;;;;;;;26.77;19.78;101989.06;4952728;29;1006;-73
2022/01/22 10:42:39;;;;;;;;;;;;;;;27.95;19.15;101988.19;4967137;28;2254;-73
2022/01/22 10:45:09;;;;;;;;;;;;;;;26.93;19.76;101985.97;4970166;28;1963;-73
2022/01/22 10:47:35;;;;;;;;;;;;;;;25.95;21.08;101983.72;4971836;28;995;-74
2022/01/22 10:50:16;;;;;;;;;;;;;;;26.39;21.34;101993.00;4972049;28;991;-73
2022/01/22 10:52:46;;;;;;;;;;;;;;;25.17;21.34;101995.28;4972081;28;1321;-74
2022/01/22 10:55:13;;;;;;;;;;;;;;;25.23;21.99;102000.09;4970105;28;798;-75
2022/01/22 10:57:40;;;;;;;;;;;;;;;25.27;21.69;102008.03;4971776;28;936;-74
2022/01/22 11:00:19;;;;;;;;;;;;;;;24.43;22.38;102009.88;4971860;28;1012;-73
2022/01/22 11:02:46;;;;;;;;;;;;;;;26.39;20.98;101999.41;4994947;23;3627;-74
2022/01/22 11:05:32;;;;;;;;;;;;;;;25.66;21.21;102004.13;5024452;28;1985;-74
2022/01/22 11:08:08;;;;;;;;;;;;;;;25.60;21.79;102014.09;5012352;28;999;-77
2022/01/22 11:10:34;;;;;;;;;;;;;;;26.41;20.78;101999.22;5012030;28;1043;-76
2022/01/22 11:13:02;;;;;;;;;;;;;;;26.03;21.08;102003.09;5011926;28;1309;-77
2022/01/22 11:15:28;;;;;;;;;;;;;;;26.15;20.86;102006.25;5011769;28;971;-75
2022/01/22 11:17:55;;;;;;;;;;;;;;;26.87;20.32;102009.91;5011043;28;780;-73
2022/01/22 11:20:23;;;;;;;;;;;;;;;27.15;20.56;102005.38;5011878;28;800;-73
2022/01/22 11:22:51;;;;;;;;;;;;;;;26.72;20.56;102011.94;5012079;28;1437;-72
2022/01/22 11:25:17;;;;;;;;;;;;;;;27.62;20.26;102000.97;5011603;28;1906;-76
2022/01/22 11:27:45;;;;;;;;;;;;;;;27.51;20.09;101999.63;5011890;28;1420;-75
2022/01/22 11:30:14;;;;;;;;;;;;;;;28.46;19.31;101995.19;5011107;28;1492;-75
2022/01/22 11:32:43;;;;;;;;;;;;;;;27.59;19.56;102004.16;5011633;28;1308;-74
2022/01/22 11:35:10;;;;;;;;;;;;;;;25.82;20.68;102001.13;5003460;28;1653;-75
2022/01/22 11:37:39;;;;;;;;;;;;;;;27.04;20.69;101999.31;5010644;28;1208;-76
2022/01/22 11:40:13;;;;;;;;;;;;;;;26.93;20.11;101990.69;5011362;28;817;-75
2022/01/22 11:43:00;;;;;;;;;;;;;;;27.35;20.75;101986.88;5011243;28;1352;-75
2022/01/22 11:45:30;;;;;;;;;;;;;;;27.23;19.25;101986.59;5011284;28;793;-77
2022/01/22 11:48:13;;;;;;;;;;;;;;;27.19;19.72;101990.84;5011565;28;979;-77
2022/01/22 11:50:40;;;;;;;;;;;;;;;26.93;20.29;101996.25;5011447;28;979;-76
2022/01/22 11:53:22;;;;;;;;;;;;;;;26.97;19.39;101992.84;5009487;28;1481;-77
2022/01/22 11:56:04;;;;;;;;;;;;;;;26.84;19.76;102003.88;5011424;28;769;-76
2022/01/22 11:58:30;;;;;;;;;;;;;;;26.43;20.26;102001.78;5013190;28;1508;-76
2022/01/22 12:00:57;;;;;;;;;;;;;;;26.81;19.24;102002.38;5015321;28;902;-77
2022/01/22 12:03:24;;;;;;;;;;;;;;;25.75;20.29;102002.97;5013470;28;1919;-76
2022/01/22 12:06:09;;;;;;;;;;;;;;;26.52;19.51;102006.16;5015236;28;1525;-76
2022/01/22 12:09:03;;;;;;;;;;;;;;;26.70;20.49;102002.91;5015101;28;1017;-75
2022/01/22 12:14:35;;;;;;;;;;;;;;;25.33;20.80;101987.84;5026863;28;1350;-77
2022/01/22 12:17:04;;;;;;;;;;;;;;;26.05;20.64;101994.56;5014998;28;1334;-75
2022/01/22 12:19:51;;;;;;;;;;;;;;;26.10;20.96;102007.91;5014378;28;1498;-77
2022/01/22 12:22:35;;;;;;;;;;;;;;;26.30;19.90;102008.94;5014383;28;1338;-76
2022/01/22 12:25:21;;;;;;;;;;;;;;;26.69;20.83;102013.16;5014120;28;1923;-75
2022/01/22 12:27:49;;;;;;;;;;;;;;;26.71;19.84;102015.78;5014485;28;1240;-77
2022/01/22 12:30:16;;;;;;;;;;;;;;;25.83;20.95;102005.63;5014721;28;896;-76
2022/01/22 12:32:45;;;;;;;;;;;;;;;24.60;21.15;102006.97;5013888;28;1306;-77
2022/01/22 12:35:14;;;;;;;;;;;;;;;25.74;20.05;102018.75;5013673;28;1525;-75
2022/01/22 12:37:51;;;;;;;;;;;;;;;25.06;21.37;102018.84;5013367;28;1553;-74
2022/01/22 12:40:31;;;;;;;;;;;;;;;23.18;22.18;102008.81;5015334;28;1619;-75
2022/01/22 12:43:03;;;;;;;;;;;;;;;24.72;21.15;102006.38;5015065;28;1490;-76
2022/01/22 12:45:29;;;;;;;;;;;;;;;25.29;21.07;102005.94;5015076;28;1985;-76
2022/01/22 12:47:57;;;;;;;;;;;;;;;25.13;20.65;102002.28;5017491;28;890;-76
2022/01/22 12:50:25;;;;;;;;;;;;;;;24.71;20.44;102001.84;5024055;28;1512;-77
2022/01/22 12:52:51;;;;;;;;;;;;;;;24.83;20.55;102001.41;5014268;28;1420;-77
2022/01/22 12:55:19;;;;;;;;;;;;;;;24.23;20.91;101996.50;5012473;28;1703;-76
2022/01/22 12:57:46;;;;;;;;;;;;;;;24.33;21.12;101998.16;5011629;28;1473;-76
2022/01/22 13:00:17;;;;;;;;;;;;;;;24.34;20.84;101997.97;5013249;28;1510;-73
2022/01/22 13:02:44;;;;;;;;;;;;;;;24.96;20.23;101998.84;5005589;28;1494;-76
2022/01/22 13:05:13;;;;;;;;;;;;;;;25.18;20.33;101998.97;5012789;28;1918;-76
2022/01/22 13:08:01;;;;;;;;;;;;;;;24.55;20.34;101999.22;5012718;28;1054;-76
2022/01/22 13:10:48;;;;;;;;;;;;;;;25.01;19.79;101999.16;5011511;28;1443;-76
2022/01/22 13:13:17;;;;;;;;;;;;;;;23.95;20.94;101998.94;5013776;28;1419;-77
2022/01/22 13:15:43;;;;;;;;;;;;;;;24.99;20.52;102011.50;5014153;28;932;-75
2022/01/22 13:18:10;;;;;;;;;;;;;;;25.52;20.38;102006.75;5014068;28;1624;-75
2022/01/22 13:20:37;;;;;;;;;;;;;;;25.75;20.38;102002.97;5014228;28;852;-76
2022/01/22 13:23:14;;;;;;;;;;;;;;;25.67;19.77;101995.59;5014464;28;1392;-76
2022/01/22 13:25:40;;;;;;;;;;;;;;;24.86;21.19;102010.22;5013340;28;1918;-75
2022/01/22 13:28:10;;;;;;;;;;;;;;;25.62;20.70;102008.34;5012238;28;983;-78
2022/01/22 13:30:42;;;;;;;;;;;;;;;24.84;20.85;102014.22;5011586;28;1498;-77
2022/01/22 13:33:17;;;;;;;;;;;;;;;25.90;19.91;102006.56;5013177;28;1342;-76
2022/01/22 13:35:56;;;;;;;;;;;;;;;25.28;20.43;102010.66;5011205;28;1450;-77
2022/01/22 13:38:38;;;;;;;;;;;;;;;26.44;19.66;102006.28;5010774;28;1433;-75
2022/01/22 13:49:26;;;;;;;;;;;;;;;25.65;19.96;102016.31;5020597;28;1018;-77
2022/01/22 13:51:55;;;;;;;;;;;;;;;26.32;19.73;102017.09;5014177;28;1425;-75
2022/01/22 13:54:26;;;;;;;;;;;;;;;25.80;19.79;102025.50;5012411;28;1411;-76
2022/01/22 13:56:55;;;;;;;;;;;;;;;25.33;20.33;102023.97;5012193;28;1510;-75
2022/01/22 13:59:23;;;;;;;;;;;;;;;23.78;20.52;102023.09;5017707;28;1223;-75
2022/01/22 14:02:04;;;;;;;;;;;;;;;24.61;20.92;102025.34;5023170;28;1294;-75
2022/01/22 14:04:37;;;;;;;;;;;;;;;24.90;20.61;102031.00;5017188;28;1911;-76
2022/01/22 14:07:13;;;;;;;;;;;;;;;25.80;19.73;102031.06;5018985;28;1235;-74
2022/01/22 14:09:50;;;;;;;;;;;;;;;25.89;19.47;102017.88;5021355;28;1176;-76
2022/01/22 14:12:16;;;;;;;;;;;;;;;25.68;19.36;102019.56;5009752;28;1340;-73
2022/01/22 14:14:55;;;;;;;;;;;;;;;25.47;19.56;102023.13;5012383;28;1002;-77
2022/01/22 14:17:24;;;;;;;;;;;;;;;25.04;19.79;102018.19;4998450;28;1502;-75
2022/01/22 14:19:57;;;;;;;;;;;;;;;25.43;19.77;102023.69;5011788;28;947;-77
2022/01/22 14:22:25;;;;;;;;;;;;;;;25.64;19.82;102021.00;5011571;28;1454;-74
2022/01/22 14:25:08;;;;;;;;;;;;;;;24.59;19.73;102014.44;5010684;28;1919;-74
2022/01/22 14:27:34;;;;;;;;;;;;;;;24.56;20.06;102018.44;5011245;28;1426;-75
2022/01/22 14:30:01;;;;;;;;;;;;;;;25.16;19.80;102026.94;5010472;28;988;-74